createdAt,value
2023-11-01T00:02:19.409Z,2.93
2023-11-01T00:07:21.275Z,2.67
2023-11-01T00:12:23.216Z,1.63
2023-11-01T00:17:27.698Z,1.57
2023-11-01T00:22:29.660Z,1.53
2023-11-01T00:27:34.022Z,2.13
2023-11-01T00:32:35.959Z,2.60
2023-11-01T00:37:37.859Z,3.00
2023-11-01T00:42:42.079Z,3.10
2023-11-01T00:47:44.061Z,3.13
2023-11-01T00:52:48.416Z,2.93
2023-11-01T00:57:50.526Z,4.10
2023-11-01T01:02:54.993Z,4.50
2023-11-01T01:07:57.854Z,5.10
2023-11-01T01:13:04.423Z,4.50
2023-11-01T01:18:06.612Z,5.20
2023-11-01T01:23:10.999Z,4.70
2023-11-01T01:28:12.924Z,5.37
2023-11-01T01:33:15.105Z,5.20
2023-11-01T01:38:17.002Z,6.20
2023-11-01T01:43:22.562Z,6.97
2023-11-01T01:48:24.806Z,8.03
2023-11-01T01:53:27.154Z,8.50
2023-11-01T01:58:31.744Z,8.13
2023-11-01T02:03:34.429Z,9.10
2023-11-01T02:08:38.780Z,9.20
2023-11-01T02:13:42.879Z,10.03
2023-11-01T02:18:45.036Z,10.43
2023-11-01T02:23:47.380Z,12.97
2023-11-01T02:28:51.712Z,14.13
2023-11-01T02:33:53.599Z,14.30
2023-11-01T02:38:55.978Z,16.40
2023-11-01T02:43:57.813Z,17.47
2023-11-01T02:49:00.328Z,16.20
2023-11-01T02:54:04.633Z,16.20
2023-11-01T02:59:06.437Z,17.10
2023-11-01T03:04:08.251Z,18.17
2023-11-01T03:09:12.335Z,17.80
2023-11-01T03:14:14.275Z,16.10
2023-11-01T03:19:18.629Z,16.57
2023-11-01T03:24:22.671Z,16.67
2023-11-01T03:29:24.941Z,17.17
2023-11-01T03:34:26.861Z,17.17
2023-11-01T03:39:28.670Z,17.83
2023-11-01T03:44:30.547Z,17.73
2023-11-01T03:49:32.459Z,18.43
2023-11-01T03:54:35.117Z,17.97
2023-11-01T03:59:37.094Z,18.00
2023-11-01T04:04:38.917Z,18.73
2023-11-01T04:09:42.949Z,18.70
2023-11-01T04:14:44.773Z,18.97
2023-11-01T04:19:46.755Z,18.77
2023-11-01T04:24:48.568Z,19.10
2023-11-01T04:29:55.384Z,19.50
2023-11-01T04:34:59.997Z,20.50
2023-11-01T04:40:04.175Z,21.37
2023-11-01T04:45:07.650Z,20.73
2023-11-01T04:50:12.363Z,21.77
2023-11-01T04:55:14.320Z,21.27
2023-11-01T05:00:17.918Z,19.93
2023-11-01T05:05:20.031Z,22.10
2023-11-01T05:10:21.869Z,22.67
2023-11-01T05:15:23.653Z,22.77
2023-11-01T05:20:25.911Z,24.60
2023-11-01T05:25:30.536Z,27.10
2023-11-01T05:30:32.706Z,27.47
2023-11-01T05:35:38.072Z,28.00
2023-11-01T05:40:40.489Z,29.30
2023-11-01T05:45:42.344Z,31.07
2023-11-01T05:50:47.369Z,32.07
2023-11-01T06:00:58.596Z,33.40
2023-11-01T06:06:02.939Z,32.57
2023-11-01T06:11:05.359Z,34.23
2023-11-01T06:16:09.919Z,38.67
2023-11-01T06:21:15.578Z,34.50
2023-11-01T06:26:22.078Z,34.25
2023-11-01T06:31:26.124Z,34.37
2023-11-01T06:36:28.224Z,37.03
2023-11-01T06:41:30.193Z,35.13
2023-11-01T06:46:32.090Z,36.73
2023-11-01T06:51:34.136Z,38.15
2023-11-01T06:56:36.007Z,37.60
2023-11-01T07:01:37.833Z,37.83
2023-11-01T07:06:39.813Z,38.33
2023-11-01T07:11:41.694Z,41.88
2023-11-01T07:16:46.720Z,40.53
2023-11-01T07:21:50.735Z,39.17
2023-11-01T07:26:55.358Z,39.67
2023-11-01T07:31:59.527Z,39.72
2023-11-01T07:37:01.434Z,38.10
2023-11-01T07:42:08.121Z,37.00
2023-11-01T07:47:09.995Z,39.97
2023-11-01T07:52:11.879Z,38.40
2023-11-01T07:57:13.765Z,38.72
2023-11-01T08:02:15.689Z,38.53
2023-11-01T08:07:18.035Z,35.83
2023-11-01T08:12:22.979Z,36.90
2023-11-01T08:17:24.837Z,36.22
2023-11-01T08:22:27.121Z,33.75
2023-11-01T08:27:29.806Z,33.13
2023-11-01T08:32:34.030Z,32.05
2023-11-01T08:37:36.821Z,31.00
2023-11-01T08:42:38.676Z,28.92
2023-11-01T08:47:44.164Z,30.50
2023-11-01T08:52:46.737Z,28.63
2023-11-01T08:57:48.594Z,28.42
2023-11-01T09:02:50.578Z,28.45
2023-11-01T09:07:52.498Z,29.58
2023-11-01T09:12:57.590Z,28.77
2023-11-01T09:18:01.831Z,27.05
2023-11-01T09:23:04.296Z,26.85
2023-11-01T09:28:08.335Z,23.38
2023-11-01T09:33:10.307Z,23.88
2023-11-01T09:38:12.301Z,22.88
2023-11-01T09:43:21.384Z,21.10
2023-11-01T09:48:24.136Z,22.58
2023-11-01T09:53:26.228Z,20.83
2023-11-01T09:58:30.356Z,19.90
2023-11-01T10:03:34.622Z,19.20
2023-11-01T10:08:36.762Z,18.05
2023-11-01T10:13:38.652Z,17.73
2023-11-01T10:18:41.209Z,17.55
2023-11-01T10:23:45.471Z,18.08
2023-11-01T10:28:47.380Z,18.25
2023-11-01T10:33:51.532Z,17.20
2023-11-01T10:38:57.494Z,18.20
2023-11-01T10:43:59.568Z,17.58
2023-11-01T10:49:05.277Z,18.23
2023-11-01T10:54:11.358Z,17.38
2023-11-01T10:59:36.006Z,14.85
2023-11-01T11:05:08.212Z,16.95
2023-11-01T11:10:35.851Z,13.85
2023-11-01T11:15:50.038Z,14.55
2023-11-01T11:20:57.084Z,12.95
2023-11-01T11:26:00.315Z,11.38
2023-11-01T11:31:06.713Z,10.10
2023-11-01T11:36:16.806Z,8.75
2023-11-01T11:41:25.664Z,7.43
2023-11-01T11:46:34.770Z,8.25
2023-11-01T11:51:37.866Z,6.97
2023-11-01T11:56:40.459Z,6.57
2023-11-01T12:01:42.390Z,7.38
2023-11-01T12:06:55.223Z,6.85
2023-11-01T12:12:10.303Z,6.60
2023-11-01T12:17:12.507Z,7.28
2023-11-01T12:22:15.582Z,8.63
2023-11-01T12:27:19.349Z,8.10
2023-11-01T12:32:28.470Z,8.75
2023-11-01T12:37:34.973Z,8.82
2023-11-01T12:42:38.506Z,8.13
2023-11-01T12:47:50.265Z,7.65
2023-11-01T12:52:52.633Z,8.38
2023-11-01T12:58:02.490Z,8.18
2023-11-01T13:03:04.684Z,7.63
2023-11-01T13:08:09.732Z,7.97
2023-11-01T13:13:16.196Z,7.72
2023-11-01T13:18:18.093Z,6.88
2023-11-01T13:23:20.252Z,5.72
2023-11-01T13:28:24.404Z,6.15
2023-11-01T13:33:26.315Z,5.85
2023-11-01T13:38:28.180Z,5.25
2023-11-01T13:43:30.139Z,5.95
2023-11-01T13:48:32.560Z,4.57
2023-11-01T13:53:34.609Z,4.15
2023-11-01T13:58:41.335Z,4.15
2023-11-01T14:03:44.234Z,4.07
2023-11-01T14:08:51.064Z,5.43
2023-11-01T14:13:56.363Z,3.97
2023-11-01T14:18:58.371Z,4.53
2023-11-01T14:24:00.251Z,5.60
2023-11-01T14:29:04.755Z,5.72
2023-11-01T14:34:06.854Z,6.03
2023-11-01T14:39:11.262Z,5.88
2023-11-01T14:44:13.408Z,6.18
2023-11-01T14:49:15.674Z,5.28
2023-11-01T14:54:17.886Z,5.53
2023-11-01T14:59:20.276Z,4.85
2023-11-01T15:04:22.769Z,3.78
2023-11-01T15:09:24.957Z,3.90
2023-11-01T15:14:27.010Z,4.35
2023-11-01T15:19:29.131Z,4.30
2023-11-01T15:24:31.309Z,4.35
2023-11-01T15:29:35.866Z,3.20
2023-11-01T15:34:39.120Z,3.88
2023-11-01T15:39:43.553Z,3.50
2023-11-01T15:44:45.899Z,3.63
2023-11-01T15:49:47.986Z,13.25
2023-11-01T15:54:52.984Z,8.35
2023-11-01T15:59:54.924Z,5.75
2023-11-01T16:05:01.877Z,7.32
2023-11-01T16:10:04.277Z,9.68
2023-11-01T16:15:14.873Z,8.82
2023-11-01T16:20:16.996Z,3.53
2023-11-01T16:25:21.288Z,3.22
2023-11-01T16:30:23.646Z,2.45
2023-11-01T16:35:26.950Z,2.80
2023-11-01T16:40:29.271Z,2.70
2023-11-01T16:45:35.768Z,2.60
2023-11-01T16:50:40.124Z,2.47
2023-11-01T16:55:42.114Z,2.47
2023-11-01T17:00:44.050Z,3.00
2023-11-01T17:05:46.083Z,2.65
2023-11-01T17:10:50.343Z,2.60
2023-11-01T17:15:57.160Z,2.15
2023-11-01T17:21:04.902Z,2.40
2023-11-01T17:26:26.288Z,3.03
2023-11-01T17:31:42.520Z,5.65
2023-11-01T17:36:44.521Z,3.03
2023-11-01T17:41:53.309Z,4.07
2023-11-01T17:47:09.074Z,3.80
2023-11-01T17:52:15.264Z,2.40
2023-11-01T17:57:19.362Z,2.42
2023-11-01T18:02:28.073Z,2.65
2023-11-01T18:07:32.739Z,2.25
2023-11-01T18:12:36.974Z,3.05
2023-11-01T18:17:39.277Z,2.35
2023-11-01T18:22:42.432Z,2.67
2023-11-01T18:27:46.604Z,2.38
2023-11-01T18:32:48.904Z,2.30
2023-11-01T18:37:52.814Z,2.60
2023-11-01T18:42:58.757Z,2.80
2023-11-01T18:48:00.765Z,2.38
2023-11-01T18:53:06.063Z,2.05
2023-11-01T18:58:08.089Z,2.08
2023-11-01T19:03:12.056Z,1.90
2023-11-01T19:08:21.846Z,2.47
2023-11-01T19:13:24.641Z,2.08
2023-11-01T19:18:26.712Z,2.47
2023-11-01T19:23:29.073Z,2.70
2023-11-01T19:28:32.059Z,2.17
2023-11-01T19:33:34.504Z,2.58
2023-11-01T19:38:45.052Z,2.63
2023-11-01T19:43:47.283Z,2.00
2023-11-01T19:48:52.243Z,1.80
2023-11-01T19:53:54.345Z,1.85
2023-11-01T19:59:13.587Z,2.20
2023-11-01T20:04:36.391Z,1.40
2023-11-01T20:09:51.214Z,2.10
2023-11-01T20:14:59.514Z,1.52
2023-11-01T20:20:07.998Z,1.55
2023-11-01T20:25:12.014Z,1.70
2023-11-01T20:30:16.996Z,1.70
2023-11-01T20:35:18.966Z,1.83
2023-11-01T20:40:23.228Z,1.90
2023-11-01T20:45:31.643Z,1.55
2023-11-01T20:50:33.712Z,1.73
2023-11-01T20:55:39.210Z,2.33
2023-11-01T21:00:44.330Z,1.67
2023-11-01T21:05:48.704Z,1.92
2023-11-01T21:10:50.694Z,1.70
2023-11-01T21:15:58.495Z,1.58
2023-11-01T21:21:02.020Z,1.80
2023-11-01T21:26:09.181Z,1.52
2023-11-01T21:31:13.700Z,1.55
2023-11-01T21:36:15.558Z,1.77
2023-11-01T21:41:17.557Z,1.70
2023-11-01T21:46:19.656Z,1.48
2023-11-01T21:51:24.525Z,2.03
2023-11-01T21:56:33.580Z,2.22
2023-11-01T22:01:35.888Z,1.35
2023-11-01T22:06:38.114Z,1.60
2023-11-01T22:11:46.110Z,2.00
2023-11-01T22:16:48.105Z,1.70
2023-11-01T22:21:52.509Z,1.67
2023-11-01T22:26:58.581Z,1.83
2023-11-01T22:32:05.005Z,1.60
2023-11-01T22:37:06.886Z,1.95
2023-11-01T22:42:34.354Z,1.70
2023-11-01T22:47:38.650Z,1.80
2023-11-01T22:52:42.898Z,1.85
2023-11-01T22:57:47.768Z,1.75
2023-11-01T23:02:54.482Z,1.50
2023-11-01T23:07:57.496Z,1.58
2023-11-01T23:13:01.644Z,2.28
2023-11-01T23:18:04.594Z,1.83
2023-11-01T23:23:06.505Z,1.90
2023-11-01T23:28:26.889Z,1.73
2023-11-01T23:33:38.708Z,2.00
2023-11-01T23:38:45.413Z,1.70
2023-11-01T23:43:47.389Z,1.48
2023-11-01T23:48:50.817Z,1.75
2023-11-01T23:53:55.050Z,1.60
2023-11-01T23:58:56.978Z,2.35
